Time;durP1;ratioP1;P1;durP2;ratioP2;P2;SDS_P1;SDS_P2;PMS_P1;PMS_P2;Temp;Humidity;BMP_temperature;BMP_pressure;BME280_temperature;BME280_humidity;BME280_pressure;Samples;Min_cycle;Max_cycle;Signal;HPM_P1;HPM_P2
2021/09/25 00:00:55;;;;;;;2.65;1.47;;;;;;;22.54;55.73;100584.58;1823403;77;21621;-45
2021/09/25 00:03:21;;;;;;;2.25;1.50;;;;;;;22.54;55.74;100585.95;1822055;77;21317;-44
2021/09/25 00:05:47;;;;;;;2.95;1.60;;;;;;;22.52;55.76;100591.86;1822115;77;21474;-44
2021/09/25 00:08:13;;;;;;;2.12;1.47;;;;;;;22.52;55.77;100589.66;1821268;77;20974;-45
2021/09/25 00:10:40;;;;;;;2.17;1.52;;;;;;;22.50;55.79;100593.32;1823775;77;21032;-43
2021/09/25 00:13:06;;;;;;;2.20;1.57;;;;;;;22.49;55.81;100586.17;1826316;77;21507;-43
2021/09/25 00:15:32;;;;;;;2.37;1.47;;;;;;;22.49;55.83;100586.17;1821052;77;21799;-45
2021/09/25 00:17:59;;;;;;;2.08;1.67;;;;;;;22.48;55.85;100590.91;1816690;77;20998;-43
2021/09/25 00:20:25;;;;;;;2.00;1.50;;;;;;;22.48;55.83;100599.80;1819869;77;20975;-45
2021/09/25 00:22:51;;;;;;;2.33;1.50;;;;;;;22.48;55.87;100603.95;1825211;77;21755;-46
2021/09/25 00:25:17;;;;;;;2.75;1.55;;;;;;;22.46;55.87;100609.00;1818821;77;21053;-47
2021/09/25 00:27:43;;;;;;;2.17;1.50;;;;;;;22.45;55.88;100605.41;1823471;77;21900;-48
2021/09/25 00:30:11;;;;;;;2.20;1.50;;;;;;;22.45;55.89;100612.34;1818055;76;20970;-45
2021/09/25 00:32:38;;;;;;;2.10;1.55;;;;;;;22.43;55.90;100609.11;1820359;77;21053;-43
2021/09/25 00:35:06;;;;;;;3.15;1.80;;;;;;;22.43;55.89;100615.23;1829014;77;21057;-45
2021/09/25 00:37:32;;;;;;;2.12;1.40;;;;;;;22.43;55.91;100618.81;1826007;77;20975;-44
2021/09/25 00:39:58;;;;;;;2.42;1.82;;;;;;;22.41;55.92;100619.70;1826742;77;21855;-44
2021/09/25 00:42:24;;;;;;;2.60;1.70;;;;;;;22.41;55.93;100628.59;1815431;77;20853;-45
2021/09/25 00:44:51;;;;;;;2.98;1.82;;;;;;;22.39;55.94;100626.17;1821595;77;21112;-44
2021/09/25 00:47:17;;;;;;;1.82;1.40;;;;;;;22.42;55.98;100628.84;1826198;76;21041;-42
2021/09/25 00:49:43;;;;;;;1.57;0.70;;;;;;;22.44;56.05;100632.92;1817124;77;20887;-44
2021/09/25 00:52:09;;;;;;;1.80;0.98;;;;;;;22.47;56.13;100635.02;1818286;77;21375;-46
2021/09/25 00:54:35;;;;;;;1.92;1.20;;;;;;;22.50;56.16;100644.05;1819074;77;21119;-43
2021/09/25 00:57:02;;;;;;;2.00;0.95;;;;;;;22.52;56.12;100647.88;1820084;77;21459;-47
2021/09/25 00:59:28;;;;;;;2.00;1.10;;;;;;;22.55;56.03;100649.97;1799388;78;21018;-43
2021/09/25 01:01:54;;;;;;;2.25;1.25;;;;;;;22.58;55.92;100654.27;1818096;77;21084;-43
2021/09/25 01:04:20;;;;;;;1.50;1.20;;;;;;;22.61;55.80;100649.47;1779607;77;21207;-44
2021/09/25 01:06:46;;;;;;;1.75;1.17;;;;;;;22.64;55.69;100652.12;1816475;77;20982;-45
2021/09/25 01:09:12;;;;;;;1.67;1.10;;;;;;;22.66;55.59;100647.86;1817447;77;21021;-45
2021/09/25 01:11:38;;;;;;;2.10;1.60;;;;;;;22.69;55.48;100658.91;1789685;77;20880;-47
2021/09/25 01:14:04;;;;;;;2.60;1.35;;;;;;;22.69;55.38;100651.41;1796993;77;20962;-43
2021/09/25 01:16:30;;;;;;;1.95;1.40;;;;;;;22.71;55.33;100648.27;1819354;77;21960;-46
2021/09/25 01:18:57;;;;;;;2.08;1.52;;;;;;;22.72;55.25;100650.72;1816515;77;21014;-44
2021/09/25 01:21:23;;;;;;;2.10;1.60;;;;;;;22.73;55.18;100649.58;1819134;77;21074;-45
2021/09/25 01:23:49;;;;;;;2.15;1.45;;;;;;;22.75;55.16;100653.39;1822761;77;21050;-47
2021/09/25 01:26:15;;;;;;;2.47;1.42;;;;;;;22.75;55.09;100654.20;1820822;77;20935;-45
2021/09/25 01:28:41;;;;;;;1.82;1.45;;;;;;;22.75;55.06;100655.59;1822666;77;21264;-44
2021/09/25 01:31:09;;;;;;;3.27;1.52;;;;;;;22.77;55.05;100656.66;1818268;77;21009;-48
2021/09/25 01:33:40;;;;;;;3.83;1.67;;;;;;;22.76;55.02;100657.22;1823798;77;21404;-47
2021/09/25 01:36:06;;;;;;;;;;;;;;;22.77;55.00;100662.20;1821569;77;20977;-44
2021/09/25 01:38:32;;;;;;;2.75;1.42;;;;;;;22.76;55.01;100660.56;1820589;77;20402;-45
2021/09/25 01:40:58;;;;;;;2.47;1.80;;;;;;;22.75;54.99;100668.64;1824931;77;21290;-44
2021/09/25 01:43:25;;;;;;;2.20;1.60;;;;;;;22.75;55.01;100675.00;1820645;77;21484;-45
2021/09/25 01:45:51;;;;;;;2.40;1.60;;;;;;;22.75;55.00;100675.58;1816783;78;21464;-45
2021/09/25 01:48:18;;;;;;;2.92;1.82;;;;;;;22.75;55.02;100679.73;1823799;77;21013;-45
2021/09/25 01:50:46;;;;;;;3.72;1.60;;;;;;;22.76;55.03;100685.53;1817998;77;21441;-48
2021/09/25 01:53:12;;;;;;;2.42;1.52;;;;;;;22.75;55.05;100686.09;1818857;77;21417;-46
2021/09/25 01:55:39;;;;;;;2.02;1.50;;;;;;;22.75;55.05;100694.42;1816690;77;21030;-45
2021/09/25 01:58:05;;;;;;;2.55;1.60;;;;;;;22.75;55.05;100691.64;1828656;76;21104;-48
2021/09/25 02:00:34;;;;;;;1.75;1.12;;;;;;;22.75;55.06;100701.92;1820818;77;21036;-44
2021/09/25 02:02:59;;;;;;;2.85;2.25;;;;;;;22.74;55.06;100702.50;1826638;77;21069;-44
2021/09/25 02:05:25;;;;;;;2.15;1.55;;;;;;;22.74;55.07;100699.72;1800119;78;21581;-43
2021/09/25 02:07:51;;;;;;;4.12;2.05;;;;;;;22.74;55.10;100708.05;1814870;77;20950;-46
2021/09/25 02:10:18;;;;;;;2.45;1.72;;;;;;;22.74;55.11;100710.03;1815833;77;21485;-47
2021/09/25 02:12:44;;;;;;;3.27;1.72;;;;;;;22.73;55.11;100705.05;1827579;77;20871;-43
2021/09/25 02:15:10;;;;;;;2.35;1.62;;;;;;;22.74;55.16;100708.64;1834370;77;20958;-48
2021/09/25 02:17:36;;;;;;;2.65;1.85;;;;;;;22.72;55.15;100714.52;1814074;77;22096;-44
2021/09/25 02:20:05;;;;;;;2.40;1.75;;;;;;;22.72;55.15;100722.02;1820043;77;21046;-44
2021/09/25 02:22:31;;;;;;;2.55;1.87;;;;;;;22.71;55.19;100728.13;1824140;77;21078;-44
2021/09/25 02:24:57;;;;;;;2.37;1.87;;;;;;;22.71;55.19;100728.13;1828732;76;20874;-47
2021/09/25 02:27:23;;;;;;;2.80;2.00;;;;;;;22.71;55.21;100731.48;1828673;77;21029;-46
2021/09/25 02:29:49;;;;;;;2.85;2.00;;;;;;;22.70;55.24;100739.58;1831146;76;21636;-44
2021/09/25 02:32:15;;;;;;;2.95;2.08;;;;;;;22.69;55.24;100742.11;1830730;77;20937;-44
2021/09/25 02:34:41;;;;;;;2.47;1.82;;;;;;;22.67;55.29;100741.01;1826450;77;21583;-44
2021/09/25 02:37:07;;;;;;;2.70;2.27;;;;;;;22.67;55.30;100749.90;1827852;77;21017;-44
2021/09/25 02:39:34;;;;;;;3.15;2.20;;;;;;;22.65;55.33;100747.48;1835963;77;20957;-44
2021/09/25 02:42:00;;;;;;;3.02;2.33;;;;;;;22.65;55.38;100754.41;1825998;77;23220;-46
2021/09/25 02:44:26;;;;;;;3.47;2.50;;;;;;;22.64;55.38;100751.39;1826850;76;20930;-43
2021/09/25 02:46:52;;;;;;;2.55;1.80;;;;;;;22.64;55.39;100752.78;1830869;76;20977;-44
2021/09/25 02:49:19;;;;;;;3.80;2.62;;;;;;;22.62;55.40;100761.98;1825228;77;21049;-44
2021/09/25 02:51:46;;;;;;;2.35;1.90;;;;;;;22.62;55.45;100763.38;1822877;77;20987;-47
2021/09/25 02:54:12;;;;;;;4.17;3.00;;;;;;;22.61;55.46;100765.93;1826599;77;21341;-45
2021/09/25 02:56:38;;;;;;;3.75;2.52;;;;;;;22.61;55.47;100768.70;1829365;77;20985;-48
2021/09/25 02:59:04;;;;;;;3.58;2.52;;;;;;;22.61;55.47;100777.02;1829895;77;20854;-49
2021/09/25 03:01:31;;;;;;;4.08;2.62;;;;;;;22.61;55.49;100785.91;1831932;77;21036;-44
2021/09/25 03:03:57;;;;;;;2.98;2.30;;;;;;;22.59;55.50;100780.69;1827261;77;21468;-47
2021/09/25 03:06:24;;;;;;;3.87;2.85;;;;;;;22.58;55.52;100787.37;1833128;76;21244;-45
2021/09/25 03:08:50;;;;;;;6.05;2.87;;;;;;;22.59;55.55;100789.00;1828377;77;20947;-45
2021/09/25 03:11:17;;;;;;;3.80;2.80;;;;;;;22.58;55.56;100792.91;1834864;77;20950;-44
2021/09/25 03:13:43;;;;;;;5.03;2.95;;;;;;;22.58;55.57;100799.03;1837344;76;21028;-49
2021/09/25 03:16:09;;;;;;;3.98;2.70;;;;;;;22.58;55.59;100805.96;1829761;76;21101;-44
2021/09/25 03:18:35;;;;;;;3.37;2.60;;;;;;;22.57;55.59;100809.91;1830609;77;21105;-45
2021/09/25 03:21:01;;;;;;;4.05;2.87;;;;;;;22.55;55.60;100807.45;1830351;77;21007;-44
2021/09/25 03:23:27;;;;;;;3.47;2.58;;;;;;;22.55;55.64;100824.09;1823537;77;21562;-44
2021/09/25 03:25:53;;;;;;;3.42;2.62;;;;;;;22.54;55.65;100818.29;1831752;76;21010;-44
2021/09/25 03:28:20;;;;;;;4.60;3.05;;;;;;;22.55;55.65;100825.47;1826359;76;21414;-45
2021/09/25 03:30:46;;;;;;;4.15;2.90;;;;;;;22.54;55.67;100831.34;1830670;76;21459;-43
2021/09/25 03:33:12;;;;;;;4.03;2.90;;;;;;;22.53;55.70;100840.82;1828515;77;21017;-46
2021/09/25 03:35:42;;;;;;;4.45;3.15;;;;;;;22.53;55.71;100840.22;1832580;77;21060;-44
2021/09/25 03:38:06;;;;;;;3.52;2.70;;;;;;;22.52;55.72;100837.80;1829388;77;21057;-44
2021/09/25 03:40:33;;;;;;;3.98;2.83;;;;;;;22.55;55.78;100844.06;1824740;77;20989;-43
2021/09/25 03:42:59;;;;;;;2.95;2.65;;;;;;;22.56;55.87;100842.36;1787010;78;22041;-46
2021/09/25 03:45:25;;;;;;;5.42;3.08;;;;;;;22.59;56.03;100842.26;1801563;77;20860;-44
2021/09/25 03:47:57;;;;;;;5.22;2.87;;;;;;;22.62;56.09;100838.81;1828017;77;20892;-46
2021/09/25 03:50:18;;;;;;;3.87;3.00;;;;;;;22.64;56.14;100847.06;1823090;77;21002;-47
2021/09/25 03:52:44;;;;;;;4.47;3.05;;;;;;;22.67;56.11;100853.33;1839607;77;20881;-47
2021/09/25 03:55:11;;;;;;;4.55;3.10;;;;;;;22.71;56.05;100861.27;1832642;77;20906;-43
2021/09/25 03:57:37;;;;;;;5.10;3.30;;;;;;;22.72;55.98;100864.28;1827453;77;20994;-45
2021/09/25 04:00:05;;;;;;;3.72;2.83;;;;;;;22.73;55.90;100865.92;1830133;76;20958;-44
2021/09/25 04:02:31;;;;;;;4.83;2.72;;;;;;;22.75;55.80;100866.95;1831839;77;21050;-44
2021/09/25 04:04:57;;;;;;;3.87;3.02;;;;;;;22.75;55.74;100877.48;1831204;77;21538;-46
2021/09/25 04:07:23;;;;;;;5.08;3.12;;;;;;;22.74;55.68;100878.62;1833471;76;21222;-43
2021/09/25 04:09:49;;;;;;;4.67;3.55;;;;;;;22.72;55.64;100883.70;1832100;77;21467;-46
2021/09/25 04:12:15;;;;;;;6.05;3.60;;;;;;;22.71;55.64;100881.24;1836043;76;20870;-47
2021/09/25 04:14:41;;;;;;;5.12;3.67;;;;;;;22.68;55.65;100880.49;1839450;77;21456;-43
2021/09/25 04:17:07;;;;;;;4.20;3.62;;;;;;;22.66;55.65;100884.97;1835578;77;20977;-48
2021/09/25 04:19:33;;;;;;;5.72;4.33;;;;;;;22.62;55.68;100886.78;1839052;77;21070;-43
2021/09/25 04:21:59;;;;;;;6.95;4.75;;;;;;;22.61;55.68;100889.90;1836986;77;21377;-44
2021/09/25 04:24:25;;;;;;;6.95;5.37;;;;;;;22.57;55.65;100887.55;1837252;76;20922;-44
2021/09/25 04:26:51;;;;;;;8.18;5.75;;;;;;;22.54;55.62;100895.11;1835419;77;21032;-43
2021/09/25 04:29:18;;;;;;;8.30;6.12;;;;;;;22.50;55.57;100897.73;1814919;77;20914;-44
2021/09/25 04:31:46;;;;;;;10.75;7.25;;;;;;;22.47;55.52;100900.34;1828034;76;22047;-48
2021/09/25 04:34:13;;;;;;;8.90;6.33;;;;;;;22.43;55.46;100904.35;1828667;77;20942;-47
2021/09/25 04:36:40;;;;;;;9.28;6.83;;;;;;;22.41;55.38;100907.19;1832779;77;20982;-46
2021/09/25 04:39:07;;;;;;;8.90;6.80;;;;;;;22.39;55.35;100910.31;1822626;77;21062;-45
2021/09/25 04:41:33;;;;;;;8.53;6.97;;;;;;;22.38;55.32;100920.33;1829983;77;21033;-44
2021/09/25 04:43:59;;;;;;;10.23;7.45;;;;;;;22.36;55.31;100920.67;1828313;77;21182;-46
2021/09/25 04:46:25;;;;;;;12.20;6.72;;;;;;;22.35;55.24;100923.19;1820478;76;21311;-43
2021/09/25 04:48:51;;;;;;;11.15;6.87;;;;;;;22.33;55.20;100925.46;1830649;77;21104;-45
2021/09/25 04:51:18;;;;;;;9.38;7.40;;;;;;;22.32;55.12;100933.53;1827162;77;20922;-50
2021/09/25 04:53:44;;;;;;;11.18;7.58;;;;;;;22.30;55.05;100923.35;1827717;77;21165;-46
2021/09/25 04:56:11;;;;;;;9.68;7.53;;;;;;;22.29;55.01;100924.48;1823176;77;22121;-44
2021/09/25 04:58:38;;;;;;;9.98;7.22;;;;;;;;;;1824459;76;21499;-43
2021/09/25 05:01:05;;;;;;;10.72;7.37;;;;;;;22.26;54.83;100931.51;1829334;77;21107;-44
2021/09/25 05:03:33;;;;;;;9.30;7.50;;;;;;;22.26;54.72;100934.28;1824953;77;21061;-45
2021/09/25 05:06:00;;;;;;;10.05;7.53;;;;;;;22.24;54.65;100935.16;1823701;77;21049;-48
2021/09/25 05:08:27;;;;;;;10.72;8.30;;;;;;;22.24;54.56;100937.11;1831798;76;21072;-46
2021/09/25 05:10:53;;;;;;;10.23;7.50;;;;;;;22.23;54.50;100941.87;1827135;77;21025;-45
2021/09/25 05:13:19;;;;;;;9.60;7.50;;;;;;;22.21;54.44;100948.86;1838709;76;20834;-48
2021/09/25 05:15:46;;;;;;;12.23;7.70;;;;;;;22.20;54.34;100950.81;1829895;77;20989;-45
2021/09/25 05:18:12;;;;;;;10.60;7.78;;;;;;;22.20;54.29;100952.77;1800023;76;21151;-44
2021/09/25 05:20:38;;;;;;;10.32;7.33;;;;;;;22.20;54.17;100954.15;1815245;76;21852;-48
2021/09/25 05:23:04;;;;;;;9.75;7.78;;;;;;;22.18;54.09;100953.11;1828715;77;20942;-43
2021/09/25 05:25:30;;;;;;;10.15;7.47;;;;;;;22.17;54.00;100955.63;1821934;77;21089;-49
2021/09/25 05:27:56;;;;;;;11.40;7.62;;;;;;;22.17;53.89;100954.80;1833003;77;21120;-43
2021/09/25 05:30:22;;;;;;;9.78;7.30;;;;;;;22.16;53.82;100961.48;1824080;77;21686;-48
2021/09/25 05:32:48;;;;;;;9.23;6.85;;;;;;;22.15;53.77;100966.20;1828392;77;21139;-46
2021/09/25 05:35:14;;;;;;;13.18;7.22;;;;;;;22.15;53.71;100964.82;1827694;77;21593;-43
2021/09/25 05:37:40;;;;;;;10.55;7.45;;;;;;;22.15;53.66;100970.95;1816959;77;21103;-44
2021/09/25 05:40:08;;;;;;;9.98;7.72;;;;;;;22.14;53.62;100977.06;1821704;77;21520;-46
2021/09/25 05:42:35;;;;;;;10.40;7.42;;;;;;;22.13;53.54;100982.36;1782241;79;21047;-44
2021/09/25 05:45:01;;;;;;;10.95;6.85;;;;;;;22.12;53.40;100986.26;1751261;79;21667;-45
2021/09/25 05:47:27;;;;;;;11.75;7.40;;;;;;;22.11;53.39;100983.80;1772688;79;21101;-44
2021/09/25 05:49:53;;;;;;;11.75;7.40;;;;;;;22.11;53.37;100985.19;1767963;79;20984;-44
2021/09/25 05:52:19;;;;;;;12.70;7.15;;;;;;;22.08;53.23;100985.27;1823922;77;20901;-46
2021/09/25 05:54:45;;;;;;;16.30;8.50;;;;;;;22.08;53.12;100995.54;1825343;77;21048;-44
2021/09/25 05:57:11;;;;;;;14.13;8.18;;;;;;;22.07;52.86;101007.19;1820214;77;21313;-47
2021/09/25 05:59:37;;;;;;;11.88;6.47;;;;;;;22.02;52.61;101000.44;1783526;77;20996;-43
2021/09/25 06:02:04;;;;;;;13.95;7.85;;;;;;;22.00;52.43;100998.55;1824379;76;21744;-47
2021/09/25 06:04:32;;;;;;;14.47;8.20;;;;;;;21.98;52.22;101003.58;1826108;77;21560;-43
2021/09/25 06:06:58;;;;;;;11.03;6.30;;;;;;;21.97;52.06;101003.92;1828397;77;21168;-43
2021/09/25 06:09:24;;;;;;;8.33;5.83;;;;;;;21.93;51.96;101003.75;1817870;77;21648;-44
2021/09/25 06:11:51;;;;;;;8.70;6.22;;;;;;;21.94;52.02;101005.95;1809325;77;20957;-45
2021/09/25 06:14:19;;;;;;;14.45;6.85;;;;;;;21.94;52.13;101012.87;1797948;77;21104;-45
2021/09/25 06:16:45;;;;;;;13.08;7.12;;;;;;;21.94;52.17;101021.19;1788702;77;21135;-45
2021/09/25 06:19:12;;;;;;;20.37;8.43;;;;;;;21.95;52.23;101017.26;1794627;77;21665;-47
2021/09/25 06:21:38;;;;;;;17.75;7.47;;;;;;;21.94;52.24;101019.80;1792477;77;22054;-44
2021/09/25 06:24:05;;;;;;;19.23;7.62;;;;;;;21.95;52.28;101028.34;1794292;77;20999;-44
2021/09/25 06:26:31;;;;;;;12.15;6.80;;;;;;;21.95;52.31;101033.87;1795434;78;21601;-43
2021/09/25 06:28:57;;;;;;;8.25;5.33;;;;;;;21.97;52.34;101044.09;1791464;77;20977;-43
2021/09/25 06:31:23;;;;;;;4.22;3.67;;;;;;;21.98;52.34;101047.11;1797728;77;21073;-44
2021/09/25 06:33:49;;;;;;;4.67;3.70;;;;;;;22.01;52.36;101053.39;1801031;78;21884;-43
2021/09/25 06:36:15;;;;;;;5.40;3.17;;;;;;;22.04;52.39;101055.51;1799042;77;20842;-45
2021/09/25 06:38:41;;;;;;;5.95;3.50;;;;;;;22.06;52.41;101057.41;1796956;77;21032;-43
2021/09/25 06:41:08;;;;;;;5.95;2.90;;;;;;;22.08;52.40;101054.55;1794834;77;20901;-43
2021/09/25 06:43:34;;;;;;;4.50;3.65;;;;;;;22.12;52.40;101055.53;1796717;78;21115;-43
2021/09/25 06:46:01;;;;;;;5.95;3.77;;;;;;;22.15;52.39;101058.25;1791750;77;21237;-46
2021/09/25 06:48:27;;;;;;;4.45;3.35;;;;;;;22.17;52.38;101062.88;1797789;78;21524;-44
2021/09/25 06:50:53;;;;;;;7.42;4.33;;;;;;;22.19;52.40;101063.39;1800495;77;20902;-43
2021/09/25 06:53:19;;;;;;;8.33;3.83;;;;;;;22.21;52.40;101073.57;1800118;78;21676;-45
2021/09/25 06:55:45;;;;;;;4.85;3.33;;;;;;;22.24;52.40;101068.20;1796282;78;20977;-44
2021/09/25 06:58:11;;;;;;;6.87;3.58;;;;;;;;;;1796381;77;21194;-43
2021/09/25 07:00:37;;;;;;;12.63;4.78;;;;;;;22.30;52.42;101075.80;1797907;78;20860;-47
2021/09/25 07:03:03;;;;;;;9.75;3.98;;;;;;;22.31;52.46;101071.89;1790851;77;21593;-49
2021/09/25 07:05:29;;;;;;;8.13;4.37;;;;;;;22.34;52.50;101075.40;1799275;77;21045;-49
2021/09/25 07:07:55;;;;;;;8.48;4.72;;;;;;;22.36;52.55;101074.52;1798771;78;21093;-46
2021/09/25 07:10:21;;;;;;;9.23;4.22;;;;;;;22.38;52.58;101079.16;1805184;77;21975;-46
2021/09/25 07:12:47;;;;;;;6.95;4.35;;;;;;;22.40;52.63;101078.28;1813023;77;21087;-48
2021/09/25 07:15:13;;;;;;;12.60;6.28;;;;;;;22.42;52.65;101073.78;1828999;77;21617;-45
2021/09/25 07:17:39;;;;;;;28.20;8.33;;;;;;;22.44;52.66;101086.20;1819644;77;20867;-44
2021/09/25 07:20:08;;;;;;;22.10;7.55;;;;;;;22.44;52.69;101080.66;1819216;77;46715;-47
2021/09/25 07:22:35;;;;;;;14.15;5.65;;;;;;;22.45;52.69;101083.64;1819628;77;21083;-42
2021/09/25 07:25:01;;;;;;;12.85;6.65;;;;;;;22.48;52.71;101086.36;1815768;77;21032;-44
2021/09/25 07:27:27;;;;;;;12.60;6.78;;;;;;;22.48;52.72;101083.02;1827121;77;21029;-44
2021/09/25 07:29:53;;;;;;;13.38;5.83;;;;;;;22.50;52.72;101089.05;1814144;77;21046;-46
2021/09/25 07:32:19;;;;;;;14.83;6.87;;;;;;;22.51;52.75;101089.86;1816154;77;21079;-44
2021/09/25 07:34:45;;;;;;;10.32;5.80;;;;;;;22.51;52.74;101089.30;1816570;77;21268;-45
2021/09/25 07:37:12;;;;;;;10.72;5.90;;;;;;;22.50;52.76;101093.20;1809953;77;20998;-44
2021/09/25 07:39:39;;;;;;;10.82;5.12;;;;;;;22.52;52.74;101093.71;1816580;77;21084;-47
2021/09/25 07:42:05;;;;;;;11.22;5.65;;;;;;;22.53;52.75;101095.32;1812832;77;21061;-44
2021/09/25 07:44:32;;;;;;;12.40;6.25;;;;;;;22.54;52.74;101094.19;1815582;77;21037;-44
2021/09/25 07:46:58;;;;;;;9.50;5.15;;;;;;;22.55;52.74;101097.78;1825086;77;22026;-44
2021/09/25 07:49:24;;;;;;;10.68;5.80;;;;;;;22.55;52.74;101102.76;1820487;77;21071;-44
2021/09/25 07:51:50;;;;;;;10.55;6.20;;;;;;;22.56;52.76;101107.73;1820047;77;21009;-44
2021/09/25 07:54:16;;;;;;;11.12;6.05;;;;;;;22.56;52.78;101107.73;1824451;77;20843;-44
2021/09/25 07:56:42;;;;;;;12.25;6.80;;;;;;;22.57;52.81;101111.59;1815182;77;21453;-46
2021/09/25 07:59:08;;;;;;;14.98;7.35;;;;;;;22.58;52.88;101113.20;1822116;77;21509;-46
2021/09/25 08:01:35;;;;;;;14.93;7.83;;;;;;;22.58;52.95;101115.14;1823085;77;20882;-45
2021/09/25 08:04:01;;;;;;;15.50;8.50;;;;;;;22.58;53.04;101113.20;1823889;77;21483;-45
2021/09/25 08:06:27;;;;;;;11.88;6.97;;;;;;;22.60;53.15;101112.88;1813392;77;21045;-46
2021/09/25 08:08:53;;;;;;;16.02;8.95;;;;;;;22.59;53.26;101113.45;1819485;77;20983;-45
2021/09/25 08:11:20;;;;;;;14.20;8.43;;;;;;;22.61;53.40;101120.89;1821900;77;21630;-48
2021/09/25 08:13:46;;;;;;;14.47;9.50;;;;;;;22.61;53.51;101119.50;1808031;77;21049;-43
2021/09/25 08:16:13;;;;;;;12.63;7.85;;;;;;;22.60;53.64;101121.20;1824392;76;21412;-44
2021/09/25 08:18:39;;;;;;;16.95;8.70;;;;;;;22.61;53.78;101122.28;1816770;76;20972;-48
2021/09/25 08:21:05;;;;;;;15.48;8.55;;;;;;;22.62;53.90;101121.67;1825044;77;20983;-47
2021/09/25 08:23:31;;;;;;;15.93;8.65;;;;;;;22.63;54.07;101118.59;1830682;77;21558;-47
2021/09/25 08:25:57;;;;;;;11.30;5.92;;;;;;;22.63;54.18;101119.16;1830145;77;20874;-46
2021/09/25 08:28:23;;;;;;;13.40;7.53;;;;;;;22.63;54.28;101114.44;1830577;76;21102;-44
2021/09/25 08:30:50;;;;;;;12.93;6.83;;;;;;;22.64;54.37;101116.64;1828676;77;21105;-44
2021/09/25 08:33:16;;;;;;;13.10;5.90;;;;;;;22.66;54.49;101117.94;1831955;77;21472;-46
2021/09/25 08:35:42;;;;;;;8.55;5.15;;;;;;;22.71;54.67;101119.77;1828339;77;21107;-47
2021/09/25 08:38:08;;;;;;;11.85;6.70;;;;;;;22.74;54.87;101124.69;1827421;77;21081;-43
2021/09/25 08:40:36;;;;;;;13.10;6.53;;;;;;;22.78;55.04;101119.30;1832646;77;20993;-44
2021/09/25 08:43:03;;;;;;;11.93;7.25;;;;;;;22.81;55.25;101120.86;1831754;77;21518;-47
2021/09/25 08:45:29;;;;;;;9.53;5.70;;;;;;;22.85;55.32;101124.61;1831296;77;21026;-45
2021/09/25 08:47:56;;;;;;;14.25;6.17;;;;;;;22.87;55.37;101117.36;1827853;77;22020;-44
2021/09/25 08:50:22;;;;;;;15.93;7.10;;;;;;;22.90;55.39;101120.86;1825649;77;21685;-44
2021/09/25 08:52:48;;;;;;;17.82;8.33;;;;;;;22.92;55.35;101118.00;1831124;77;21016;-45
2021/09/25 08:55:14;;;;;;;15.95;7.97;;;;;;;22.93;55.35;101115.47;1827945;77;21096;-44
2021/09/25 08:57:40;;;;;;;16.40;7.78;;;;;;;22.95;55.35;101117.37;1832610;77;21447;-46
2021/09/25 09:00:45;;;;;;;18.62;7.87;;;;;;;22.95;55.35;101117.37;1821242;77;21285;-45
2021/09/25 09:03:35;;;;;;;17.82;8.68;;;;;;;22.95;55.37;101115.16;1822017;77;21068;-45
2021/09/25 09:06:20;;;;;;;15.05;7.42;;;;;;;22.95;55.36;101113.77;1823907;77;21083;-45
2021/09/25 09:08:49;;;;;;;9.00;5.87;;;;;;;22.94;55.36;101119.07;1825699;77;21065;-42
2021/09/25 09:11:17;;;;;;;10.35;5.40;;;;;;;22.91;55.40;101116.39;1824470;76;21058;-48
2021/09/25 09:13:45;;;;;;;7.55;5.20;;;;;;;22.90;55.43;101120.86;1831517;77;21211;-50
2021/09/25 09:16:12;;;;;;;10.03;5.20;;;;;;;22.88;55.41;101114.81;1814481;77;21081;-46
2021/09/25 09:18:42;;;;;;;11.73;5.05;;;;;;;22.86;55.36;101117.92;1810566;77;21016;-49
2021/09/25 09:21:18;;;;;;;6.33;4.15;;;;;;;22.85;55.30;101124.61;1825872;77;21507;-47
2021/09/25 09:23:51;;;;;;;9.00;4.78;;;;;;;22.83;55.22;101117.17;1821670;77;21033;-46
2021/09/25 09:26:19;;;;;;;10.93;4.03;;;;;;;22.81;55.16;101125.58;1822889;77;21686;-46
2021/09/25 09:28:47;;;;;;;16.93;6.47;;;;;;;22.79;55.06;101120.95;1828655;77;21629;-44
2021/09/25 09:31:13;;;;;;;7.45;3.60;;;;;;;22.77;55.00;101124.03;1832928;76;21069;-45
2021/09/25 09:33:58;;;;;;;6.65;3.15;;;;;;;22.75;54.94;101124.34;1828702;77;21016;-45
2021/09/25 09:36:37;;;;;;;16.90;6.85;;;;;;;22.75;54.90;101127.69;1823469;77;21075;-44
2021/09/25 09:39:17;;;;;;;8.43;4.20;;;;;;;22.74;54.86;101121.92;1824962;76;21507;-45
2021/09/25 09:41:51;;;;;;;7.80;3.80;;;;;;;22.72;54.84;101131.12;1825867;77;21108;-47
2021/09/25 09:44:24;;;;;;;5.33;3.77;;;;;;;22.71;54.81;101132.25;1782181;77;20994;-45
2021/09/25 09:47:00;;;;;;;3.50;1.82;;;;;;;22.70;54.82;101135.59;1773794;79;21071;-55
2021/09/25 09:49:40;;;;;;;4.83;2.65;;;;;;;22.67;54.84;101123.73;1832837;77;21120;-46
2021/09/25 09:52:13;;;;;;;7.60;3.22;;;;;;;22.70;54.82;101134.80;1763513;80;21071;-46
2021/09/25 09:54:42;;;;;;;7.42;3.77;;;;;;;22.67;54.83;101133.45;1738395;81;21574;-45
2021/09/25 09:57:17;;;;;;;28.65;10.05;;;;;;;22.67;54.84;101132.06;1824390;77;21538;-49
2021/09/25 09:59:45;;;;;;;10.95;4.42;;;;;;;22.67;54.87;101128.46;1826015;77;21032;-47
2021/09/25 10:02:11;;;;;;;5.75;3.30;;;;;;;22.68;54.87;101128.16;1825657;77;21060;-45
2021/09/25 10:04:38;;;;;;;5.37;3.27;;;;;;;22.66;54.90;101126.26;1823668;77;21271;-47
2021/09/25 10:07:05;;;;;;;4.83;2.85;;;;;;;22.67;54.94;101125.69;1828336;77;21034;-49
2021/09/25 10:09:36;;;;;;;5.75;2.65;;;;;;;22.66;54.97;101122.69;1828785;76;21063;-45
2021/09/25 10:12:06;;;;;;;4.33;2.55;;;;;;;22.65;54.98;101119.10;1828228;77;21093;-49
2021/09/25 10:14:35;;;;;;;4.53;2.85;;;;;;;22.67;54.99;101118.75;1821980;76;21484;-48
2021/09/25 10:17:05;;;;;;;5.85;3.00;;;;;;;22.66;55.02;101112.39;1817919;76;22157;-45
2021/09/25 10:19:32;;;;;;;56.98;15.55;;;;;;;22.67;55.02;101113.21;1817217;76;21006;-49
2021/09/25 10:22:15;;;;;;;40.78;10.20;;;;;;;22.68;55.02;101112.08;1820279;76;21149;-47
2021/09/25 10:24:57;;;;;;;6.87;3.47;;;;;;;22.70;55.03;101114.80;1795834;76;21045;-46
2021/09/25 10:27:35;;;;;;;5.53;2.62;;;;;;;22.71;55.06;101113.66;1807360;77;21124;-46
2021/09/25 10:30:04;;;;;;;7.03;2.77;;;;;;;22.72;55.12;101112.52;1830220;76;22300;-45
2021/09/25 10:32:36;;;;;;;5.47;2.77;;;;;;;22.71;55.13;101110.88;1818603;76;21416;-43
2021/09/25 10:35:15;;;;;;;3.62;2.25;;;;;;;22.72;55.17;101113.91;1820071;76;21647;-45
2021/09/25 10:37:46;;;;;;;3.83;2.50;;;;;;;22.73;55.19;101105.02;1811499;78;21031;-48
2021/09/25 10:40:20;;;;;;;6.95;2.75;;;;;;;22.73;55.18;101101.68;1816235;76;21066;-45
2021/09/25 10:43:00;;;;;;;5.45;2.80;;;;;;;22.72;55.18;101097.27;1825242;76;21175;-46
2021/09/25 10:45:33;;;;;;;3.30;2.35;;;;;;;22.73;55.19;101101.68;1829279;76;21576;-46
2021/09/25 10:48:13;;;;;;;2.15;1.50;;;;;;;22.74;55.16;101092.20;1826423;76;21591;-49
2021/09/25 10:51:04;;;;;;;3.75;1.67;;;;;;;22.74;55.16;101099.13;1819314;76;21065;-47
2021/09/25 10:53:36;;;;;;;190.22;44.48;;;;;;;22.74;55.11;101096.95;1813477;77;21056;-48
2021/09/25 10:56:06;;;;;;;50.73;13.05;;;;;;;22.75;55.09;101094.41;1817650;76;22185;-48
2021/09/25 10:58:35;;;;;;;243.52;80.62;;;;;;;22.76;55.06;101093.27;1811240;76;21038;-51
2021/09/25 11:01:08;;;;;;;398.02;117.40;;;;;;;22.74;55.04;101093.58;1820679;76;21013;-48
2021/09/25 11:03:48;;;;;;;157.57;41.63;;;;;;;22.77;55.02;101092.13;1820615;76;21025;-50
2021/09/25 11:06:24;;;;;;;51.35;12.55;;;;;;;22.78;55.02;101084.63;1822669;76;21034;-49
2021/09/25 11:09:00;;;;;;;28.87;8.20;;;;;;;22.78;55.03;101088.80;1818568;77;21092;-45
2021/09/25 11:11:38;;;;;;;12.33;3.65;;;;;;;22.80;55.01;101094.81;1824810;76;21049;-50
2021/09/25 11:14:12;;;;;;;16.62;5.70;;;;;;;22.80;54.99;101092.86;1820388;77;20938;-46
2021/09/25 11:17:01;;;;;;;23.42;5.95;;;;;;;22.81;54.99;101095.89;1816827;77;21555;-46
2021/09/25 11:19:30;;;;;;;15.50;4.95;;;;;;;22.81;54.99;101091.73;1823767;77;21056;-51
2021/09/25 11:22:25;;;;;;;23.67;6.12;;;;;;;22.82;54.98;101087.82;1813623;77;21147;-49
2021/09/25 11:25:13;;;;;;;19.15;4.05;;;;;;;22.84;54.96;101093.02;1821826;77;21073;-48
2021/09/25 11:27:46;;;;;;;4.78;1.62;;;;;;;22.83;54.93;101081.70;1813632;77;21385;-49